sensor_id;sensor_type;location;lat;lon;timestamp;P1;durP1;ratioP1;P2;durP2;ratioP2
57337;SDS011;43173;50.980;18.204;2023-02-15T00:00:21;33.00;;;16.90;;
57337;SDS011;43173;50.980;18.204;2023-02-15T00:02:47;32.90;;;15.70;;
57337;SDS011;43173;50.980;18.204;2023-02-15T00:05:13;33.70;;;15.30;;
57337;SDS011;43173;50.980;18.204;2023-02-15T00:07:39;32.20;;;16.10;;
57337;SDS011;43173;50.980;18.204;2023-02-15T00:10:05;49.30;;;21.00;;
57337;SDS011;43173;50.980;18.204;2023-02-15T00:12:32;67.60;;;28.70;;
57337;SDS011;43173;50.980;18.204;2023-02-15T00:14:58;53.20;;;23.00;;
57337;SDS011;43173;50.980;18.204;2023-02-15T00:17:23;36.90;;;18.90;;
57337;SDS011;43173;50.980;18.204;2023-02-15T00:19:49;37.50;;;18.40;;
57337;SDS011;43173;50.980;18.204;2023-02-15T00:22:15;39.20;;;19.40;;
57337;SDS011;43173;50.980;18.204;2023-02-15T00:24:41;33.70;;;17.70;;
57337;SDS011;43173;50.980;18.204;2023-02-15T00:27:07;35.40;;;17.10;;
57337;SDS011;43173;50.980;18.204;2023-02-15T00:29:34;36.40;;;18.70;;
57337;SDS011;43173;50.980;18.204;2023-02-15T00:32:00;48.70;;;22.00;;
57337;SDS011;43173;50.980;18.204;2023-02-15T00:34:26;38.80;;;18.30;;
57337;SDS011;43173;50.980;18.204;2023-02-15T00:36:52;39.80;;;18.00;;
57337;SDS011;43173;50.980;18.204;2023-02-15T00:39:18;39.00;;;18.20;;
57337;SDS011;43173;50.980;18.204;2023-02-15T00:41:44;38.40;;;18.50;;
57337;SDS011;43173;50.980;18.204;2023-02-15T00:44:11;43.60;;;19.90;;
57337;SDS011;43173;50.980;18.204;2023-02-15T00:46:37;42.20;;;19.10;;
57337;SDS011;43173;50.980;18.204;2023-02-15T00:49:03;42.40;;;17.70;;
57337;SDS011;43173;50.980;18.204;2023-02-15T00:51:29;42.60;;;19.00;;
57337;SDS011;43173;50.980;18.204;2023-02-15T00:53:58;45.90;;;20.70;;
57337;SDS011;43173;50.980;18.204;2023-02-15T00:56:24;46.80;;;20.30;;
57337;SDS011;43173;50.980;18.204;2023-02-15T00:58:50;38.80;;;18.30;;
57337;SDS011;43173;50.980;18.204;2023-02-15T01:01:16;41.50;;;19.40;;
57337;SDS011;43173;50.980;18.204;2023-02-15T01:03:44;43.80;;;20.60;;
57337;SDS011;43173;50.980;18.204;2023-02-15T01:06:12;37.30;;;19.10;;
57337;SDS011;43173;50.980;18.204;2023-02-15T01:08:38;40.70;;;19.00;;
57337;SDS011;43173;50.980;18.204;2023-02-15T01:11:11;61.30;;;24.30;;
57337;SDS011;43173;50.980;18.204;2023-02-15T01:13:39;53.60;;;22.10;;
57337;SDS011;43173;50.980;18.204;2023-02-15T01:16:05;66.60;;;26.90;;
57337;SDS011;43173;50.980;18.204;2023-02-15T01:18:31;57.50;;;26.60;;
57337;SDS011;43173;50.980;18.204;2023-02-15T01:20:58;59.00;;;28.70;;
57337;SDS011;43173;50.980;18.204;2023-02-15T01:23:23;62.40;;;30.20;;
57337;SDS011;43173;50.980;18.204;2023-02-15T01:25:49;66.50;;;31.50;;
57337;SDS011;43173;50.980;18.204;2023-02-15T01:28:15;55.20;;;24.70;;
57337;SDS011;43173;50.980;18.204;2023-02-15T01:30:40;54.50;;;23.50;;
57337;SDS011;43173;50.980;18.204;2023-02-15T01:33:06;42.70;;;21.00;;
57337;SDS011;43173;50.980;18.204;2023-02-15T01:35:32;37.30;;;20.60;;
57337;SDS011;43173;50.980;18.204;2023-02-15T01:37:59;39.80;;;20.90;;
57337;SDS011;43173;50.980;18.204;2023-02-15T01:40:25;44.40;;;22.40;;
57337;SDS011;43173;50.980;18.204;2023-02-15T01:42:51;52.40;;;23.90;;
57337;SDS011;43173;50.980;18.204;2023-02-15T01:45:19;49.50;;;22.00;;
57337;SDS011;43173;50.980;18.204;2023-02-15T01:47:48;50.30;;;24.90;;
57337;SDS011;43173;50.980;18.204;2023-02-15T01:50:25;52.70;;;25.00;;
57337;SDS011;43173;50.980;18.204;2023-02-15T01:55:25;52.50;;;23.90;;
57337;SDS011;43173;50.980;18.204;2023-02-15T01:57:54;46.90;;;22.40;;
57337;SDS011;43173;50.980;18.204;2023-02-15T02:00:20;40.60;;;19.70;;
57337;SDS011;43173;50.980;18.204;2023-02-15T02:02:47;40.10;;;21.60;;
57337;SDS011;43173;50.980;18.204;2023-02-15T02:05:15;45.40;;;21.60;;
57337;SDS011;43173;50.980;18.204;2023-02-15T02:07:42;43.80;;;21.60;;
57337;SDS011;43173;50.980;18.204;2023-02-15T02:10:12;45.70;;;20.80;;
57337;SDS011;43173;50.980;18.204;2023-02-15T02:12:40;45.90;;;21.00;;
57337;SDS011;43173;50.980;18.204;2023-02-15T02:15:08;44.10;;;22.90;;
57337;SDS011;43173;50.980;18.204;2023-02-15T02:17:43;38.20;;;20.80;;
57337;SDS011;43173;50.980;18.204;2023-02-15T02:22:55;37.40;;;19.10;;
57337;SDS011;43173;50.980;18.204;2023-02-15T02:31:31;40.00;;;20.80;;
57337;SDS011;43173;50.980;18.204;2023-02-15T02:37:19;47.20;;;23.50;;
57337;SDS011;43173;50.980;18.204;2023-02-15T02:42:55;50.90;;;25.90;;
57337;SDS011;43173;50.980;18.204;2023-02-15T02:45:25;52.80;;;24.80;;
57337;SDS011;43173;50.980;18.204;2023-02-15T02:47:55;50.20;;;25.20;;
57337;SDS011;43173;50.980;18.204;2023-02-15T02:50:29;48.80;;;22.20;;
57337;SDS011;43173;50.980;18.204;2023-02-15T02:52:56;40.70;;;20.30;;
57337;SDS011;43173;50.980;18.204;2023-02-15T03:00:34;41.20;;;21.00;;
57337;SDS011;43173;50.980;18.204;2023-02-15T03:03:04;38.00;;;19.40;;
57337;SDS011;43173;50.980;18.204;2023-02-15T03:05:32;32.50;;;15.80;;
57337;SDS011;43173;50.980;18.204;2023-02-15T03:07:59;34.80;;;17.90;;
57337;SDS011;43173;50.980;18.204;2023-02-15T03:10:31;40.30;;;20.00;;
57337;SDS011;43173;50.980;18.204;2023-02-15T03:12:59;44.50;;;23.30;;
57337;SDS011;43173;50.980;18.204;2023-02-15T03:15:34;52.60;;;28.00;;
57337;SDS011;43173;50.980;18.204;2023-02-15T03:18:20;48.00;;;26.90;;
57337;SDS011;43173;50.980;18.204;2023-02-15T03:20:49;66.20;;;34.10;;
57337;SDS011;43173;50.980;18.204;2023-02-15T03:23:17;65.40;;;35.60;;
57337;SDS011;43173;50.980;18.204;2023-02-15T03:25:48;61.90;;;33.90;;
57337;SDS011;43173;50.980;18.204;2023-02-15T03:28:18;49.10;;;25.30;;
57337;SDS011;43173;50.980;18.204;2023-02-15T03:30:46;44.40;;;23.60;;
57337;SDS011;43173;50.980;18.204;2023-02-15T03:33:14;40.80;;;24.70;;
57337;SDS011;43173;50.980;18.204;2023-02-15T03:38:25;32.80;;;17.30;;
57337;SDS011;43173;50.980;18.204;2023-02-15T03:41:02;34.10;;;18.40;;
57337;SDS011;43173;50.980;18.204;2023-02-15T03:49:24;26.90;;;15.10;;
57337;SDS011;43173;50.980;18.204;2023-02-15T03:51:54;24.50;;;13.90;;
57337;SDS011;43173;50.980;18.204;2023-02-15T03:54:22;25.80;;;14.70;;
57337;SDS011;43173;50.980;18.204;2023-02-15T03:57:07;30.90;;;15.20;;
57337;SDS011;43173;50.980;18.204;2023-02-15T03:59:51;24.10;;;14.60;;
57337;SDS011;43173;50.980;18.204;2023-02-15T04:02:40;23.80;;;13.20;;
57337;SDS011;43173;50.980;18.204;2023-02-15T04:05:14;24.30;;;13.80;;
57337;SDS011;43173;50.980;18.204;2023-02-15T04:07:39;22.20;;;13.20;;
57337;SDS011;43173;50.980;18.204;2023-02-15T04:10:05;23.60;;;13.90;;
57337;SDS011;43173;50.980;18.204;2023-02-15T04:12:47;23.00;;;13.90;;
57337;SDS011;43173;50.980;18.204;2023-02-15T04:15:13;21.00;;;12.60;;
57337;SDS011;43173;50.980;18.204;2023-02-15T04:17:55;26.20;;;13.80;;
57337;SDS011;43173;50.980;18.204;2023-02-15T04:20:20;25.20;;;13.70;;
57337;SDS011;43173;50.980;18.204;2023-02-15T04:23:05;21.20;;;12.00;;
57337;SDS011;43173;50.980;18.204;2023-02-15T04:25:47;24.90;;;13.60;;
57337;SDS011;43173;50.980;18.204;2023-02-15T04:28:12;23.10;;;13.70;;
57337;SDS011;43173;50.980;18.204;2023-02-15T04:30:38;23.80;;;13.30;;
57337;SDS011;43173;50.980;18.204;2023-02-15T04:33:04;25.80;;;14.40;;
57337;SDS011;43173;50.980;18.204;2023-02-15T04:35:29;24.80;;;16.00;;
57337;SDS011;43173;50.980;18.204;2023-02-15T04:37:56;23.20;;;14.00;;
57337;SDS011;43173;50.980;18.204;2023-02-15T04:40:22;23.10;;;13.50;;
57337;SDS011;43173;50.980;18.204;2023-02-15T04:42:48;25.50;;;15.50;;
57337;SDS011;43173;50.980;18.204;2023-02-15T04:45:14;26.20;;;15.30;;
57337;SDS011;43173;50.980;18.204;2023-02-15T04:47:40;31.10;;;17.20;;
57337;SDS011;43173;50.980;18.204;2023-02-15T04:50:06;43.30;;;21.90;;
57337;SDS011;43173;50.980;18.204;2023-02-15T04:52:32;34.70;;;19.40;;
57337;SDS011;43173;50.980;18.204;2023-02-15T04:54:58;37.20;;;21.40;;
57337;SDS011;43173;50.980;18.204;2023-02-15T04:57:24;35.40;;;18.40;;
57337;SDS011;43173;50.980;18.204;2023-02-15T04:59:49;43.20;;;23.00;;
57337;SDS011;43173;50.980;18.204;2023-02-15T05:02:15;34.30;;;17.80;;
57337;SDS011;43173;50.980;18.204;2023-02-15T05:04:41;30.20;;;18.50;;
57337;SDS011;43173;50.980;18.204;2023-02-15T05:07:06;35.30;;;19.60;;
57337;SDS011;43173;50.980;18.204;2023-02-15T05:09:32;32.30;;;18.20;;
57337;SDS011;43173;50.980;18.204;2023-02-15T05:11:58;30.60;;;18.00;;
57337;SDS011;43173;50.980;18.204;2023-02-15T05:14:23;29.50;;;18.10;;
57337;SDS011;43173;50.980;18.204;2023-02-15T05:16:49;29.70;;;17.70;;
57337;SDS011;43173;50.980;18.204;2023-02-15T05:19:14;34.30;;;19.00;;
57337;SDS011;43173;50.980;18.204;2023-02-15T05:21:40;40.80;;;20.80;;
57337;SDS011;43173;50.980;18.204;2023-02-15T05:24:06;45.30;;;22.20;;
57337;SDS011;43173;50.980;18.204;2023-02-15T05:26:51;34.20;;;17.60;;
57337;SDS011;43173;50.980;18.204;2023-02-15T05:29:33;33.10;;;18.80;;
57337;SDS011;43173;50.980;18.204;2023-02-15T05:31:59;33.90;;;17.60;;
57337;SDS011;43173;50.980;18.204;2023-02-15T05:34:25;37.00;;;18.30;;
57337;SDS011;43173;50.980;18.204;2023-02-15T05:36:50;30.70;;;17.40;;
57337;SDS011;43173;50.980;18.204;2023-02-15T05:39:16;36.50;;;19.40;;
57337;SDS011;43173;50.980;18.204;2023-02-15T05:41:42;40.30;;;19.80;;
57337;SDS011;43173;50.980;18.204;2023-02-15T05:44:08;47.40;;;23.50;;
57337;SDS011;43173;50.980;18.204;2023-02-15T05:46:33;49.60;;;23.30;;
57337;SDS011;43173;50.980;18.204;2023-02-15T05:48:59;62.00;;;26.30;;
57337;SDS011;43173;50.980;18.204;2023-02-15T05:51:24;56.30;;;26.50;;
57337;SDS011;43173;50.980;18.204;2023-02-15T05:53:50;53.90;;;24.10;;
57337;SDS011;43173;50.980;18.204;2023-02-15T05:56:15;39.00;;;20.60;;
57337;SDS011;43173;50.980;18.204;2023-02-15T05:58:41;44.70;;;21.10;;
57337;SDS011;43173;50.980;18.204;2023-02-15T06:01:10;39.40;;;20.00;;
57337;SDS011;43173;50.980;18.204;2023-02-15T06:03:38;38.60;;;20.50;;
57337;SDS011;43173;50.980;18.204;2023-02-15T06:06:04;36.80;;;19.50;;
57337;SDS011;43173;50.980;18.204;2023-02-15T06:08:32;42.60;;;20.40;;
57337;SDS011;43173;50.980;18.204;2023-02-15T06:10:58;43.70;;;21.90;;
57337;SDS011;43173;50.980;18.204;2023-02-15T06:13:24;41.40;;;22.10;;
57337;SDS011;43173;50.980;18.204;2023-02-15T06:15:50;41.70;;;20.90;;
57337;SDS011;43173;50.980;18.204;2023-02-15T06:18:16;39.60;;;21.70;;
57337;SDS011;43173;50.980;18.204;2023-02-15T06:20:44;42.00;;;21.10;;
57337;SDS011;43173;50.980;18.204;2023-02-15T06:23:10;45.30;;;22.20;;
57337;SDS011;43173;50.980;18.204;2023-02-15T06:25:36;47.80;;;24.80;;
57337;SDS011;43173;50.980;18.204;2023-02-15T06:28:02;43.90;;;23.00;;
57337;SDS011;43173;50.980;18.204;2023-02-15T06:30:27;47.00;;;24.80;;
57337;SDS011;43173;50.980;18.204;2023-02-15T06:32:53;46.30;;;23.50;;
57337;SDS011;43173;50.980;18.204;2023-02-15T06:35:19;41.00;;;21.90;;
57337;SDS011;43173;50.980;18.204;2023-02-15T06:37:45;49.40;;;23.50;;
57337;SDS011;43173;50.980;18.204;2023-02-15T06:40:12;48.90;;;23.80;;
57337;SDS011;43173;50.980;18.204;2023-02-15T06:42:38;50.60;;;25.00;;
57337;SDS011;43173;50.980;18.204;2023-02-15T06:45:04;51.90;;;25.00;;
57337;SDS011;43173;50.980;18.204;2023-02-15T06:47:30;48.80;;;25.10;;
57337;SDS011;43173;50.980;18.204;2023-02-15T06:49:55;45.50;;;24.20;;
57337;SDS011;43173;50.980;18.204;2023-02-15T06:52:22;48.20;;;25.00;;
57337;SDS011;43173;50.980;18.204;2023-02-15T06:54:48;56.00;;;25.50;;
57337;SDS011;43173;50.980;18.204;2023-02-15T06:57:14;50.30;;;25.20;;
57337;SDS011;43173;50.980;18.204;2023-02-15T06:59:39;65.00;;;33.20;;
57337;SDS011;43173;50.980;18.204;2023-02-15T07:02:05;51.90;;;25.20;;
57337;SDS011;43173;50.980;18.204;2023-02-15T07:04:31;44.30;;;23.50;;
57337;SDS011;43173;50.980;18.204;2023-02-15T07:06:57;52.60;;;25.20;;
57337;SDS011;43173;50.980;18.204;2023-02-15T07:09:22;42.30;;;22.10;;
57337;SDS011;43173;50.980;18.204;2023-02-15T07:11:48;53.80;;;24.30;;
57337;SDS011;43173;50.980;18.204;2023-02-15T07:14:30;51.00;;;24.40;;
57337;SDS011;43173;50.980;18.204;2023-02-15T07:16:56;58.70;;;26.30;;
57337;SDS011;43173;50.980;18.204;2023-02-15T07:19:21;53.10;;;25.90;;
57337;SDS011;43173;50.980;18.204;2023-02-15T07:21:47;54.20;;;25.40;;
57337;SDS011;43173;50.980;18.204;2023-02-15T07:24:13;52.40;;;27.10;;
57337;SDS011;43173;50.980;18.204;2023-02-15T07:26:39;54.10;;;25.50;;
57337;SDS011;43173;50.980;18.204;2023-02-15T07:29:05;50.10;;;25.30;;
57337;SDS011;43173;50.980;18.204;2023-02-15T07:31:30;47.80;;;24.40;;
57337;SDS011;43173;50.980;18.204;2023-02-15T07:33:57;53.40;;;26.00;;
57337;SDS011;43173;50.980;18.204;2023-02-15T07:36:23;57.60;;;26.40;;
57337;SDS011;43173;50.980;18.204;2023-02-15T07:38:49;57.70;;;27.70;;
57337;SDS011;43173;50.980;18.204;2023-02-15T07:41:14;55.30;;;28.00;;
57337;SDS011;43173;50.980;18.204;2023-02-15T07:43:41;51.60;;;24.60;;
57337;SDS011;43173;50.980;18.204;2023-02-15T07:46:09;47.00;;;23.00;;
57337;SDS011;43173;50.980;18.204;2023-02-15T07:48:37;45.50;;;23.20;;
57337;SDS011;43173;50.980;18.204;2023-02-15T07:51:04;56.60;;;27.50;;
57337;SDS011;43173;50.980;18.204;2023-02-15T07:53:31;52.10;;;27.00;;
57337;SDS011;43173;50.980;18.204;2023-02-15T07:55:58;51.00;;;23.90;;
57337;SDS011;43173;50.980;18.204;2023-02-15T07:58:25;45.90;;;24.20;;
57337;SDS011;43173;50.980;18.204;2023-02-15T08:01:10;47.00;;;23.20;;
57337;SDS011;43173;50.980;18.204;2023-02-15T08:03:38;44.10;;;24.60;;
57337;SDS011;43173;50.980;18.204;2023-02-15T08:06:04;49.60;;;25.70;;
57337;SDS011;43173;50.980;18.204;2023-02-15T08:08:30;50.00;;;24.20;;
57337;SDS011;43173;50.980;18.204;2023-02-15T08:11:00;49.60;;;26.10;;
57337;SDS011;43173;50.980;18.204;2023-02-15T08:13:45;47.70;;;24.20;;
57337;SDS011;43173;50.980;18.204;2023-02-15T08:16:32;46.40;;;23.40;;
57337;SDS011;43173;50.980;18.204;2023-02-15T08:21:41;50.30;;;23.90;;
57337;SDS011;43173;50.980;18.204;2023-02-15T08:24:09;51.40;;;26.00;;
57337;SDS011;43173;50.980;18.204;2023-02-15T08:26:35;55.50;;;27.80;;
57337;SDS011;43173;50.980;18.204;2023-02-15T08:29:02;55.70;;;26.40;;
57337;SDS011;43173;50.980;18.204;2023-02-15T08:31:28;52.40;;;25.90;;
57337;SDS011;43173;50.980;18.204;2023-02-15T08:33:55;53.30;;;26.10;;
57337;SDS011;43173;50.980;18.204;2023-02-15T08:36:23;58.10;;;27.90;;
57337;SDS011;43173;50.980;18.204;2023-02-15T08:38:50;52.80;;;25.50;;
57337;SDS011;43173;50.980;18.204;2023-02-15T08:41:24;61.60;;;28.60;;
57337;SDS011;43173;50.980;18.204;2023-02-15T08:43:54;60.60;;;27.10;;
57337;SDS011;43173;50.980;18.204;2023-02-15T08:46:21;59.40;;;26.90;;
57337;SDS011;43173;50.980;18.204;2023-02-15T08:48:48;67.80;;;30.20;;
57337;SDS011;43173;50.980;18.204;2023-02-15T08:51:18;79.50;;;35.00;;
57337;SDS011;43173;50.980;18.204;2023-02-15T08:53:48;59.80;;;26.70;;
57337;SDS011;43173;50.980;18.204;2023-02-15T08:56:16;53.10;;;24.90;;
57337;SDS011;43173;50.980;18.204;2023-02-15T08:58:43;56.60;;;26.90;;
57337;SDS011;43173;50.980;18.204;2023-02-15T09:01:10;55.90;;;25.10;;
57337;SDS011;43173;50.980;18.204;2023-02-15T09:03:49;57.70;;;26.30;;
57337;SDS011;43173;50.980;18.204;2023-02-15T09:06:19;60.80;;;27.00;;
57337;SDS011;43173;50.980;18.204;2023-02-15T09:08:45;67.60;;;25.80;;
57337;SDS011;43173;50.980;18.204;2023-02-15T09:11:21;58.20;;;24.50;;
57337;SDS011;43173;50.980;18.204;2023-02-15T09:13:50;66.40;;;27.10;;
57337;SDS011;43173;50.980;18.204;2023-02-15T09:16:18;64.70;;;27.10;;
57337;SDS011;43173;50.980;18.204;2023-02-15T09:18:45;66.40;;;28.20;;
57337;SDS011;43173;50.980;18.204;2023-02-15T09:21:15;48.30;;;23.30;;
57337;SDS011;43173;50.980;18.204;2023-02-15T09:23:43;58.80;;;26.60;;
57337;SDS011;43173;50.980;18.204;2023-02-15T09:26:10;59.70;;;27.00;;
57337;SDS011;43173;50.980;18.204;2023-02-15T09:28:41;49.50;;;22.80;;
57337;SDS011;43173;50.980;18.204;2023-02-15T09:31:14;59.90;;;25.90;;
57337;SDS011;43173;50.980;18.204;2023-02-15T09:33:41;61.70;;;27.30;;
57337;SDS011;43173;50.980;18.204;2023-02-15T09:36:15;70.70;;;31.20;;
57337;SDS011;43173;50.980;18.204;2023-02-15T09:38:52;72.90;;;30.00;;
57337;SDS011;43173;50.980;18.204;2023-02-15T09:41:32;66.30;;;28.20;;
57337;SDS011;43173;50.980;18.204;2023-02-15T09:49:36;66.30;;;31.70;;
57337;SDS011;43173;50.980;18.204;2023-02-15T09:57:23;44.70;;;17.80;;
57337;SDS011;43173;50.980;18.204;2023-02-15T10:31:24;58.40;;;28.10;;
57337;SDS011;43173;50.980;18.204;2023-02-15T10:53:35;58.20;;;27.20;;
57337;SDS011;43173;50.980;18.204;2023-02-15T10:59:22;51.10;;;23.60;;
57337;SDS011;43173;50.980;18.204;2023-02-15T11:02:10;57.10;;;27.70;;
57337;SDS011;43173;50.980;18.204;2023-02-15T11:07:47;58.70;;;28.20;;
57337;SDS011;43173;50.980;18.204;2023-02-15T11:12:58;54.60;;;26.10;;
57337;SDS011;43173;50.980;18.204;2023-02-15T11:20:38;51.90;;;25.00;;
57337;SDS011;43173;50.980;18.204;2023-02-15T11:23:14;48.30;;;23.80;;
57337;SDS011;43173;50.980;18.204;2023-02-15T11:25:43;52.90;;;25.50;;
57337;SDS011;43173;50.980;18.204;2023-02-15T11:31:24;59.90;;;26.50;;
57337;SDS011;43173;50.980;18.204;2023-02-15T11:34:02;55.10;;;25.60;;
57337;SDS011;43173;50.980;18.204;2023-02-15T11:36:34;51.00;;;25.10;;
57337;SDS011;43173;50.980;18.204;2023-02-15T11:39:13;47.20;;;24.60;;
57337;SDS011;43173;50.980;18.204;2023-02-15T11:41:41;53.10;;;26.20;;
57337;SDS011;43173;50.980;18.204;2023-02-15T11:44:21;45.40;;;21.20;;
57337;SDS011;43173;50.980;18.204;2023-02-15T11:46:52;46.90;;;22.60;;
57337;SDS011;43173;50.980;18.204;2023-02-15T11:49:22;39.10;;;20.90;;
57337;SDS011;43173;50.980;18.204;2023-02-15T11:51:52;44.10;;;20.90;;
57337;SDS011;43173;50.980;18.204;2023-02-15T11:54:20;41.60;;;23.00;;
57337;SDS011;43173;50.980;18.204;2023-02-15T11:56:49;42.10;;;21.70;;
57337;SDS011;43173;50.980;18.204;2023-02-15T11:59:21;45.10;;;23.10;;
57337;SDS011;43173;50.980;18.204;2023-02-15T12:01:52;50.20;;;25.30;;
57337;SDS011;43173;50.980;18.204;2023-02-15T12:06:54;47.00;;;24.00;;
57337;SDS011;43173;50.980;18.204;2023-02-15T12:12:35;33.40;;;19.60;;
57337;SDS011;43173;50.980;18.204;2023-02-15T12:15:03;33.70;;;20.90;;
57337;SDS011;43173;50.980;18.204;2023-02-15T12:20:21;32.90;;;19.70;;
57337;SDS011;43173;50.980;18.204;2023-02-15T12:22:52;30.00;;;19.40;;
57337;SDS011;43173;50.980;18.204;2023-02-15T12:31:07;42.60;;;22.90;;
57337;SDS011;43173;50.980;18.204;2023-02-15T12:33:56;36.30;;;22.00;;
57337;SDS011;43173;50.980;18.204;2023-02-15T12:36:29;29.80;;;20.20;;
57337;SDS011;43173;50.980;18.204;2023-02-15T12:44:34;32.90;;;20.80;;
57337;SDS011;43173;50.980;18.204;2023-02-15T12:47:20;31.30;;;21.40;;
57337;SDS011;43173;50.980;18.204;2023-02-15T12:50:22;31.10;;;19.90;;
57337;SDS011;43173;50.980;18.204;2023-02-15T12:53:05;33.20;;;21.10;;
57337;SDS011;43173;50.980;18.204;2023-02-15T12:55:56;30.80;;;21.20;;
57337;SDS011;43173;50.980;18.204;2023-02-15T12:58:23;31.10;;;21.10;;
57337;SDS011;43173;50.980;18.204;2023-02-15T13:06:32;35.20;;;22.90;;
57337;SDS011;43173;50.980;18.204;2023-02-15T13:09:07;36.00;;;23.40;;
57337;SDS011;43173;50.980;18.204;2023-02-15T13:11:37;33.40;;;23.40;;
57337;SDS011;43173;50.980;18.204;2023-02-15T13:14:15;31.60;;;21.60;;
57337;SDS011;43173;50.980;18.204;2023-02-15T13:16:52;34.20;;;23.10;;
57337;SDS011;43173;50.980;18.204;2023-02-15T13:22:17;31.10;;;21.40;;
57337;SDS011;43173;50.980;18.204;2023-02-15T13:24:50;46.10;;;26.80;;
57337;SDS011;43173;50.980;18.204;2023-02-15T13:27:20;33.60;;;22.30;;
57337;SDS011;43173;50.980;18.204;2023-02-15T13:29:51;35.90;;;22.20;;
57337;SDS011;43173;50.980;18.204;2023-02-15T13:32:40;31.30;;;20.30;;
57337;SDS011;43173;50.980;18.204;2023-02-15T13:35:14;37.40;;;23.90;;
57337;SDS011;43173;50.980;18.204;2023-02-15T13:54:57;33.00;;;21.20;;
57337;SDS011;43173;50.980;18.204;2023-02-15T14:08:27;32.00;;;20.30;;
57337;SDS011;43173;50.980;18.204;2023-02-15T14:19:12;32.00;;;20.70;;
57337;SDS011;43173;50.980;18.204;2023-02-15T14:22:26;32.80;;;22.00;;
57337;SDS011;43173;50.980;18.204;2023-02-15T14:24:53;36.20;;;21.70;;
57337;SDS011;43173;50.980;18.204;2023-02-15T14:36:12;36.80;;;23.60;;
57337;SDS011;43173;50.980;18.204;2023-02-15T14:38:51;33.60;;;22.20;;
57337;SDS011;43173;50.980;18.204;2023-02-15T14:47:02;33.90;;;21.70;;
57337;SDS011;43173;50.980;18.204;2023-02-15T14:49:38;32.40;;;21.50;;
57337;SDS011;43173;50.980;18.204;2023-02-15T14:52:09;35.80;;;22.00;;
57337;SDS011;43173;50.980;18.204;2023-02-15T15:07:20;30.40;;;20.10;;
57337;SDS011;43173;50.980;18.204;2023-02-15T15:18:05;31.10;;;20.00;;
57337;SDS011;43173;50.980;18.204;2023-02-15T15:31:10;34.40;;;19.00;;
57337;SDS011;43173;50.980;18.204;2023-02-15T15:50:13;31.80;;;16.60;;
57337;SDS011;43173;50.980;18.204;2023-02-15T15:52:41;35.10;;;18.80;;
57337;SDS011;43173;50.980;18.204;2023-02-15T15:55:15;43.50;;;23.50;;
57337;SDS011;43173;50.980;18.204;2023-02-15T15:57:44;36.50;;;19.20;;
57337;SDS011;43173;50.980;18.204;2023-02-15T16:02:58;35.40;;;19.80;;
57337;SDS011;43173;50.980;18.204;2023-02-15T16:05:24;32.40;;;17.70;;
57337;SDS011;43173;50.980;18.204;2023-02-15T16:07:50;29.90;;;16.10;;
57337;SDS011;43173;50.980;18.204;2023-02-15T16:10:22;28.60;;;16.10;;
57337;SDS011;43173;50.980;18.204;2023-02-15T16:12:50;29.50;;;14.60;;
57337;SDS011;43173;50.980;18.204;2023-02-15T16:15:20;30.70;;;15.60;;
57337;SDS011;43173;50.980;18.204;2023-02-15T16:17:58;33.30;;;17.20;;
57337;SDS011;43173;50.980;18.204;2023-02-15T16:28:39;36.40;;;16.10;;
57337;SDS011;43173;50.980;18.204;2023-02-15T16:33:52;34.00;;;16.10;;
57337;SDS011;43173;50.980;18.204;2023-02-15T16:36:25;38.40;;;17.00;;
57337;SDS011;43173;50.980;18.204;2023-02-15T16:41:27;36.70;;;18.20;;
57337;SDS011;43173;50.980;18.204;2023-02-15T16:43:54;30.00;;;16.60;;
57337;SDS011;43173;50.980;18.204;2023-02-15T16:46:25;39.60;;;18.30;;
57337;SDS011;43173;50.980;18.204;2023-02-15T16:48:52;30.50;;;16.90;;
57337;SDS011;43173;50.980;18.204;2023-02-15T16:51:22;39.60;;;19.30;;
57337;SDS011;43173;50.980;18.204;2023-02-15T16:53:50;40.80;;;20.70;;
57337;SDS011;43173;50.980;18.204;2023-02-15T16:56:18;32.10;;;19.10;;
57337;SDS011;43173;50.980;18.204;2023-02-15T16:58:52;45.60;;;20.10;;
57337;SDS011;43173;50.980;18.204;2023-02-15T17:01:20;45.10;;;22.10;;
57337;SDS011;43173;50.980;18.204;2023-02-15T17:03:48;47.60;;;21.80;;
57337;SDS011;43173;50.980;18.204;2023-02-15T17:06:20;43.10;;;19.10;;
57337;SDS011;43173;50.980;18.204;2023-02-15T17:08:48;40.30;;;17.20;;
57337;SDS011;43173;50.980;18.204;2023-02-15T17:16:30;41.70;;;18.70;;
57337;SDS011;43173;50.980;18.204;2023-02-15T17:18:59;42.40;;;19.30;;
57337;SDS011;43173;50.980;18.204;2023-02-15T17:21:33;45.00;;;21.50;;
57337;SDS011;43173;50.980;18.204;2023-02-15T17:24:03;49.40;;;21.20;;
57337;SDS011;43173;50.980;18.204;2023-02-15T17:26:33;53.90;;;24.30;;
57337;SDS011;43173;50.980;18.204;2023-02-15T17:31:44;44.40;;;20.40;;
57337;SDS011;43173;50.980;18.204;2023-02-15T17:34:41;47.20;;;24.20;;
57337;SDS011;43173;50.980;18.204;2023-02-15T17:37:23;50.60;;;23.60;;
57337;SDS011;43173;50.980;18.204;2023-02-15T17:39:56;49.00;;;24.30;;
57337;SDS011;43173;50.980;18.204;2023-02-15T17:42:23;57.00;;;26.00;;
57337;SDS011;43173;50.980;18.204;2023-02-15T17:44:49;58.90;;;27.20;;
57337;SDS011;43173;50.980;18.204;2023-02-15T17:47:15;63.60;;;28.80;;
57337;SDS011;43173;50.980;18.204;2023-02-15T17:49:44;60.90;;;29.90;;
57337;SDS011;43173;50.980;18.204;2023-02-15T17:52:11;58.30;;;26.60;;
57337;SDS011;43173;50.980;18.204;2023-02-15T17:54:38;51.50;;;23.50;;
57337;SDS011;43173;50.980;18.204;2023-02-15T17:57:20;51.10;;;22.00;;
57337;SDS011;43173;50.980;18.204;2023-02-15T17:59:46;49.60;;;24.30;;
57337;SDS011;43173;50.980;18.204;2023-02-15T18:02:30;63.00;;;28.90;;
57337;SDS011;43173;50.980;18.204;2023-02-15T18:05:13;64.20;;;28.40;;
57337;SDS011;43173;50.980;18.204;2023-02-15T18:07:56;61.50;;;27.00;;
57337;SDS011;43173;50.980;18.204;2023-02-15T18:10:39;63.10;;;26.90;;
57337;SDS011;43173;50.980;18.204;2023-02-15T18:13:20;66.30;;;30.10;;
57337;SDS011;43173;50.980;18.204;2023-02-15T18:15:46;70.50;;;29.80;;
57337;SDS011;43173;50.980;18.204;2023-02-15T18:18:12;65.50;;;29.90;;
57337;SDS011;43173;50.980;18.204;2023-02-15T18:20:38;65.70;;;29.70;;
57337;SDS011;43173;50.980;18.204;2023-02-15T18:23:04;58.00;;;25.70;;
57337;SDS011;43173;50.980;18.204;2023-02-15T18:25:30;60.20;;;26.50;;
57337;SDS011;43173;50.980;18.204;2023-02-15T18:27:56;55.30;;;25.60;;
57337;SDS011;43173;50.980;18.204;2023-02-15T18:30:22;58.00;;;28.10;;
57337;SDS011;43173;50.980;18.204;2023-02-15T18:32:51;54.20;;;25.50;;
57337;SDS011;43173;50.980;18.204;2023-02-15T18:35:18;49.50;;;23.60;;
57337;SDS011;43173;50.980;18.204;2023-02-15T18:37:45;55.70;;;26.00;;
57337;SDS011;43173;50.980;18.204;2023-02-15T18:40:21;58.90;;;26.50;;
57337;SDS011;43173;50.980;18.204;2023-02-15T18:42:49;49.30;;;21.80;;
57337;SDS011;43173;50.980;18.204;2023-02-15T18:48:00;59.80;;;24.30;;
57337;SDS011;43173;50.980;18.204;2023-02-15T18:50:28;54.60;;;24.50;;